Time;durP1;ratioP1;P1;durP2;ratioP2;P2;SDS_P1;SDS_P2;PMS_P1;PMS_P2;Temp;Humidity;BMP_temperature;BMP_pressure;BME280_temperature;BME280_humidity;BME280_pressure;Samples;Min_cycle;Max_cycle;Signal;HPM_P1;HPM_P2
2022/05/10 00:01:33;;;;;;;;;;;;;;;17.90;44.80;101402.16;4811836;29;875;-62
2022/05/10 00:03:59;;;;;;;;;;;;;;;17.97;44.74;101399.22;4808026;29;914;-61
2022/05/10 00:06:24;;;;;;;;;;;;;;;18.02;44.95;101402.81;4810949;29;823;-61
2022/05/10 00:08:50;;;;;;;;;;;;;;;18.07;45.13;101404.75;4812417;29;848;-59
2022/05/10 00:11:15;;;;;;;;;;;;;;;18.09;44.94;101397.88;4812546;29;1986;-61
2022/05/10 00:13:41;;;;;;;;;;;;;;;18.10;45.19;101396.78;4812238;29;806;-61
2022/05/10 00:16:08;;;;;;;;;;;;;;;17.99;44.86;101391.50;4811893;29;838;-61
2022/05/10 00:18:33;;;;;;;;;;;;;;;18.02;45.04;101400.06;4812620;29;887;-61
2022/05/10 00:20:59;;;;;;;;;;;;;;;18.01;44.73;101398.41;4812129;29;1010;-66
2022/05/10 00:23:24;;;;;;;;;;;;;;;18.00;44.86;101393.97;4811658;29;817;-61
2022/05/10 00:25:50;;;;;;;;;;;;;;;18.02;44.58;101394.56;4812122;29;843;-59
2022/05/10 00:28:15;;;;;;;;;;;;;;;17.96;44.96;101390.09;4811440;29;1016;-60
2022/05/10 00:30:41;;;;;;;;;;;;;;;17.88;44.65;101377.69;4811593;29;1908;-62
2022/05/10 00:33:06;;;;;;;;;;;;;;;17.96;44.53;101379.09;4812055;29;840;-59
2022/05/10 00:35:32;;;;;;;;;;;;;;;17.97;44.17;101380.75;4810978;29;898;-62
2022/05/10 00:37:58;;;;;;;;;;;;;;;17.90;44.22;101369.16;4811606;29;877;-61
2022/05/10 00:40:25;;;;;;;;;;;;;;;17.89;43.84;101368.34;4811739;29;748;-61
2022/05/10 00:42:55;;;;;;;;;;;;;;;17.77;43.97;101374.03;4811798;29;900;-61
2022/05/10 00:45:40;;;;;;;;;;;;;;;17.76;43.51;101364.13;4809888;29;865;-60
2022/05/10 00:48:08;;;;;;;;;;;;;;;17.78;43.58;101370.19;4811026;29;785;-61
2022/05/10 00:50:53;;;;;;;;;;;;;;;17.78;43.32;101370.19;4810859;29;1899;-57
2022/05/10 00:53:38;;;;;;;;;;;;;;;17.74;43.10;101366.31;4803632;29;805;-58
2022/05/10 00:56:06;;;;;;;;;;;;;;;17.65;43.38;101362.41;4811801;29;742;-59
2022/05/10 00:58:43;;;;;;;;;;;;;;;17.69;43.34;101363.53;4810560;29;1488;-59
2022/05/10 01:01:09;;;;;;;;;;;;;;;17.58;43.16;101359.88;4806323;29;956;-60
2022/05/10 01:03:36;;;;;;;;;;;;;;;17.64;43.21;101363.50;4808032;29;819;-61
2022/05/10 01:06:08;;;;;;;;;;;;;;;17.61;43.17;101356.63;4808414;29;873;-62
2022/05/10 01:08:47;;;;;;;;;;;;;;;17.63;43.31;101364.63;4811619;29;789;-60
2022/05/10 01:11:13;;;;;;;;;;;;;;;17.64;43.33;101360.75;4810186;29;1982;-61
2022/05/10 01:13:38;;;;;;;;;;;;;;;17.68;43.17;101363.81;4811343;29;1139;-61
2022/05/10 01:16:03;;;;;;;;;;;;;;;17.70;43.11;101367.94;4811106;29;877;-59
2022/05/10 01:18:29;;;;;;;;;;;;;;;17.70;43.09;101351.44;4811098;29;849;-61
2022/05/10 01:20:56;;;;;;;;;;;;;;;17.71;43.30;101361.38;4811190;29;1113;-61
2022/05/10 01:23:31;;;;;;;;;;;;;;;17.70;43.30;101364.38;4811335;29;868;-61
2022/05/10 01:26:02;;;;;;;;;;;;;;;17.73;43.29;101355.59;4811101;29;951;-61
2022/05/10 01:28:27;;;;;;;;;;;;;;;17.67;43.29;101353.88;4811057;29;1134;-60
2022/05/10 01:30:52;;;;;;;;;;;;;;;17.69;42.86;101351.72;4810907;29;1969;-60
2022/05/10 01:33:30;;;;;;;;;;;;;;;17.63;43.22;101356.38;4811386;29;773;-63
2022/05/10 01:35:58;;;;;;;;;;;;;;;17.62;43.25;101349.19;4792464;29;797;-64
2022/05/10 01:38:26;;;;;;;;;;;;;;;17.65;43.01;101350.59;4809922;29;1187;-62
2022/05/10 01:40:53;;;;;;;;;;;;;;;17.64;43.15;101358.00;4810822;29;832;-63
2022/05/10 01:43:39;;;;;;;;;;;;;;;17.57;43.14;101349.16;4808630;29;1019;-62
2022/05/10 01:46:09;;;;;;;;;;;;;;;17.57;43.24;101352.75;4810342;29;1272;-61
2022/05/10 01:48:35;;;;;;;;;;;;;;;17.57;43.02;101351.91;4811099;29;829;-61
2022/05/10 01:51:12;;;;;;;;;;;;;;;17.56;43.25;101348.34;4809328;29;1973;-63
2022/05/10 01:53:39;;;;;;;;;;;;;;;17.63;43.23;101353.63;4811001;29;739;-63
2022/05/10 01:56:05;;;;;;;;;;;;;;;17.61;43.18;101350.28;4808846;29;1085;-62
2022/05/10 01:58:32;;;;;;;;;;;;;;;17.58;43.32;101350.81;4808605;29;1438;-62
2022/05/10 02:00:58;;;;;;;;;;;;;;;17.56;43.33;101342.03;4807971;29;1223;-62
2022/05/10 02:03:25;;;;;;;;;;;;;;;17.60;43.42;101348.66;4809476;29;820;-62
2022/05/10 02:05:53;;;;;;;;;;;;;;;17.59;43.37;101347.00;4809077;29;911;-62
2022/05/10 02:08:22;;;;;;;;;;;;;;;17.65;43.38;101345.91;4809324;29;958;-62
2022/05/10 02:10:48;;;;;;;;;;;;;;;17.60;43.26;101348.66;4805898;29;1899;-62
2022/05/10 02:13:14;;;;;;;;;;;;;;;17.55;43.56;101337.63;4805944;29;1151;-61
2022/05/10 02:15:43;;;;;;;;;;;;;;;17.59;43.22;101336.00;4793432;29;898;-61
2022/05/10 02:18:13;;;;;;;;;;;;;;;17.56;43.29;101337.34;4809805;29;831;-61
2022/05/10 02:21:05;;;;;;;;;;;;;;;17.56;43.40;101333.78;4809934;29;995;-62
2022/05/10 02:23:31;;;;;;;;;;;;;;;17.55;43.12;101337.63;4789120;29;1379;-61
2022/05/10 02:26:01;;;;;;;;;;;;;;;17.52;43.30;101335.41;4810147;29;758;-61
2022/05/10 02:28:39;;;;;;;;;;;;;;;17.49;43.16;101334.00;4808362;29;1610;-62
2022/05/10 02:31:06;;;;;;;;;;;;;;;17.54;43.07;101333.19;4808638;29;1915;-62
2022/05/10 02:33:32;;;;;;;;;;;;;;;17.53;43.13;101331.53;4808638;29;926;-61
2022/05/10 02:35:58;;;;;;;;;;;;;;;17.54;43.31;101334.00;4808128;29;881;-63
2022/05/10 02:38:30;;;;;;;;;;;;;;;17.53;43.33;101326.03;4808350;29;1447;-60
2022/05/10 02:40:56;;;;;;;;;;;;;;;17.56;43.13;101328.28;4809661;29;812;-61
2022/05/10 02:43:23;;;;;;;;;;;;;;;17.57;43.34;101327.16;4808189;29;853;-62
2022/05/10 02:45:50;;;;;;;;;;;;;;;17.54;43.29;101327.69;4809512;29;1043;-61
2022/05/10 02:48:22;;;;;;;;;;;;;;;17.50;43.39;101321.06;4803613;29;882;-61
2022/05/10 02:50:47;;;;;;;;;;;;;;;17.52;43.39;101319.72;4809356;29;1907;-61
2022/05/10 02:53:13;;;;;;;;;;;;;;;17.59;43.25;101331.31;4809758;29;772;-61
2022/05/10 02:55:41;;;;;;;;;;;;;;;17.53;43.38;101328.78;4809781;29;803;-61
2022/05/10 02:58:08;;;;;;;;;;;;;;;17.54;43.23;101335.94;4808384;29;739;-61
2022/05/10 03:00:34;;;;;;;;;;;;;;;17.54;43.29;101330.44;4808555;29;1505;-62
2022/05/10 03:03:00;;;;;;;;;;;;;;;17.54;43.47;101328.53;4808422;29;760;-60
2022/05/10 03:05:26;;;;;;;;;;;;;;;17.54;43.41;101333.19;4808006;29;860;-64
2022/05/10 03:07:53;;;;;;;;;;;;;;;17.54;43.20;101327.69;4809644;29;815;-65
2022/05/10 03:10:19;;;;;;;;;;;;;;;17.52;43.03;101338.16;4809334;29;834;-65
2022/05/10 03:12:47;;;;;;;;;;;;;;;17.48;43.24;101339.78;4807924;29;1565;-65
2022/05/10 03:15:12;;;;;;;;;;;;;;;17.42;43.24;101341.66;4809102;29;882;-64
2022/05/10 03:17:39;;;;;;;;;;;;;;;17.45;43.12;101335.63;4809341;29;796;-64
2022/05/10 03:20:05;;;;;;;;;;;;;;;17.43;42.91;101332.31;4809159;29;1030;-66
2022/05/10 03:22:30;;;;;;;;;;;;;;;17.44;42.78;101337.53;4809254;29;859;-66
2022/05/10 03:24:55;;;;;;;;;;;;;;;17.46;42.89;101342.78;4809142;29;887;-58
2022/05/10 03:27:24;;;;;;;;;;;;;;;17.39;42.93;101340.28;4806283;29;1182;-60
2022/05/10 03:29:49;;;;;;;;;;;;;;;17.42;42.92;101342.50;4807914;29;983;-60
2022/05/10 03:32:15;;;;;;;;;;;;;;;17.47;42.85;101354.59;4809129;29;1978;-60
2022/05/10 03:34:57;;;;;;;;;;;;;;;17.38;43.17;101355.09;4809402;29;790;-55
2022/05/10 03:37:22;;;;;;;;;;;;;;;17.39;42.78;101362.28;4803882;29;868;-57
2022/05/10 03:39:48;;;;;;;;;;;;;;;17.38;42.83;101366.09;4809240;29;824;-56
2022/05/10 03:42:13;;;;;;;;;;;;;;;17.35;43.15;101374.03;4808597;29;832;-56
2022/05/10 03:44:39;;;;;;;;;;;;;;;17.38;42.73;101357.03;4808610;29;905;-57
2022/05/10 03:47:05;;;;;;;;;;;;;;;17.42;42.98;101364.47;4809316;29;844;-57
2022/05/10 03:49:30;;;;;;;;;;;;;;;17.44;42.96;101369.72;4809180;29;861;-58
2022/05/10 03:51:56;;;;;;;;;;;;;;;17.44;43.00;101372.47;4808931;29;1908;-55
2022/05/10 03:54:22;;;;;;;;;;;;;;;17.39;43.00;101369.66;4804397;29;1262;-58
2022/05/10 03:56:47;;;;;;;;;;;;;;;17.40;43.23;101371.34;4808405;29;969;-57
2022/05/10 03:59:13;;;;;;;;;;;;;;;17.42;43.12;101374.66;4808805;29;1292;-57
2022/05/10 04:01:38;;;;;;;;;;;;;;;17.40;43.21;101374.09;4806290;29;1191;-57
2022/05/10 04:04:04;;;;;;;;;;;;;;;17.42;43.11;101385.66;4806420;29;1443;-57
2022/05/10 04:06:30;;;;;;;;;;;;;;;17.40;42.94;101374.09;4809103;29;846;-57
2022/05/10 04:08:55;;;;;;;;;;;;;;;17.42;42.96;101380.97;4808616;29;864;-57
2022/05/10 04:11:20;;;;;;;;;;;;;;;17.49;42.98;101375.25;4807357;29;1984;-57
2022/05/10 04:13:46;;;;;;;;;;;;;;;17.44;42.84;101372.47;4808807;29;920;-56
2022/05/10 04:16:12;;;;;;;;;;;;;;;17.41;43.25;101373.81;4807567;29;1086;-57
2022/05/10 04:18:37;;;;;;;;;;;;;;;17.42;43.06;101380.16;4808629;29;888;-58
2022/05/10 04:21:03;;;;;;;;;;;;;;;17.44;43.07;101384.28;4808925;29;1026;-58
2022/05/10 04:23:28;;;;;;;;;;;;;;;17.47;43.06;101387.59;4808673;29;882;-58
2022/05/10 04:25:55;;;;;;;;;;;;;;;17.50;43.15;101398.06;4808451;29;1034;-58
2022/05/10 04:28:20;;;;;;;;;;;;;;;17.51;43.43;101394.22;4806777;29;1408;-58
2022/05/10 04:30:46;;;;;;;;;;;;;;;17.53;43.41;101398.38;4808040;29;1911;-58
2022/05/10 04:33:11;;;;;;;;;;;;;;;17.58;43.23;101400.31;4807902;29;917;-57
2022/05/10 04:35:36;;;;;;;;;;;;;;;17.56;43.44;101399.78;4808822;29;848;-58
2022/05/10 04:38:03;;;;;;;;;;;;;;;17.56;43.60;101403.34;4808079;29;856;-57
2022/05/10 04:43:15;;;;;;;;;;;;;;;17.59;43.59;101397.31;4811142;29;892;-57
2022/05/10 04:45:43;;;;;;;;;;;;;;;17.59;43.71;101402.00;4811362;29;972;-58
2022/05/10 04:48:09;;;;;;;;;;;;;;;17.58;44.07;101403.06;4806961;29;1022;-58
2022/05/10 04:50:34;;;;;;;;;;;;;;;17.64;44.25;101399.25;4811625;29;1907;-58
2022/05/10 04:53:00;;;;;;;;;;;;;;;17.60;44.49;101407.22;4811675;29;886;-58
2022/05/10 04:55:26;;;;;;;;;;;;;;;17.64;44.53;101396.50;4810691;29;891;-57
2022/05/10 04:57:51;;;;;;;;;;;;;;;17.74;44.19;101401.22;4811667;29;844;-58
2022/05/10 05:00:20;;;;;;;;;;;;;;;17.69;44.78;101399.28;4811089;29;901;-57
2022/05/10 05:02:46;;;;;;;;;;;;;;;17.68;44.58;101394.88;4811451;29;994;-59
2022/05/10 05:05:12;;;;;;;;;;;;;;;17.74;44.53;101403.97;4811209;29;911;-59
2022/05/10 05:07:38;;;;;;;;;;;;;;;17.73;44.48;101403.16;4810501;29;785;-59
2022/05/10 05:10:04;;;;;;;;;;;;;;;17.71;44.77;101410.03;4811683;29;816;-59
2022/05/10 05:12:32;;;;;;;;;;;;;;;17.77;44.85;101407.03;4811006;29;1919;-58
2022/05/10 05:14:58;;;;;;;;;;;;;;;17.77;44.69;101404.28;4810691;29;864;-59
2022/05/10 05:17:24;;;;;;;;;;;;;;;17.78;44.80;101410.63;4811278;29;811;-57
2022/05/10 05:19:49;;;;;;;;;;;;;;;17.76;44.66;101410.88;4810350;29;1384;-60
2022/05/10 05:22:15;;;;;;;;;;;;;;;17.76;44.63;101415.56;4810912;29;1173;-65
2022/05/10 05:24:40;;;;;;;;;;;;;;;17.75;44.74;101417.50;4810749;29;840;-60
2022/05/10 05:27:05;;;;;;;;;;;;;;;17.77;44.53;101430.97;4810709;29;1103;-57
2022/05/10 05:29:31;;;;;;;;;;;;;;;17.75;44.92;101417.50;4811054;29;845;-57
2022/05/10 05:31:57;;;;;;;;;;;;;;;17.72;44.94;101411.69;4810802;29;1912;-60
2022/05/10 05:34:22;;;;;;;;;;;;;;;17.75;44.40;101416.66;4810014;29;992;-59
2022/05/10 05:37:32;;;;;;;;;;;;;;;17.74;44.33;101415.84;4810428;29;808;-59
2022/05/10 05:39:33;;;;;;;;;;;;;;;17.75;44.39;101422.16;4805946;29;1377;-58
2022/05/10 05:41:58;;;;;;;;;;;;;;;17.76;44.11;101419.13;4810661;29;880;-59
2022/05/10 05:44:24;;;;;;;;;;;;;;;17.70;44.07;101419.38;4810278;29;990;-59
2022/05/10 05:46:49;;;;;;;;;;;;;;;17.72;44.29;101434.50;4810021;29;968;-59
2022/05/10 05:49:15;;;;;;;;;;;;;;;17.70;44.30;101425.72;4810380;29;844;-59
2022/05/10 05:51:40;;;;;;;;;;;;;;;17.70;44.16;101428.47;4809478;29;1907;-59
2022/05/10 05:54:08;;;;;;;;;;;;;;;17.71;44.17;101421.88;4810382;29;895;-57
2022/05/10 05:56:34;;;;;;;;;;;;;;;17.73;44.31;101427.91;4810190;29;832;-56
2022/05/10 05:59:00;;;;;;;;;;;;;;;17.68;44.43;101424.31;4809700;29;935;-56
2022/05/10 06:01:25;;;;;;;;;;;;;;;17.71;44.41;101432.03;4810103;29;1446;-55
2022/05/10 06:03:51;;;;;;;;;;;;;;;17.72;44.42;101429.00;4810180;29;809;-60
2022/05/10 06:06:17;;;;;;;;;;;;;;;17.74;44.33;101424.09;4810330;29;863;-62
2022/05/10 06:08:42;;;;;;;;;;;;;;;17.75;44.46;101425.75;4810135;29;1069;-61
2022/05/10 06:11:08;;;;;;;;;;;;;;;17.73;44.61;101422.41;4809127;29;1915;-60
2022/05/10 06:13:36;;;;;;;;;;;;;;;17.68;44.52;101425.13;4810222;29;792;-57
2022/05/10 06:16:06;;;;;;;;;;;;;;;17.76;44.32;101423.81;4809742;29;798;-60
2022/05/10 06:18:31;;;;;;;;;;;;;;;17.75;44.46;101424.91;4808632;29;834;-63
2022/05/10 06:20:57;;;;;;;;;;;;;;;17.74;44.36;101432.34;4809726;29;998;-55
2022/05/10 06:23:22;;;;;;;;;;;;;;;17.74;44.68;101426.00;4809386;29;1137;-58
2022/05/10 06:25:48;;;;;;;;;;;;;;;17.73;44.75;101430.66;4809365;29;902;-58
2022/05/10 06:28:13;;;;;;;;;;;;;;;17.81;44.37;101440.38;4809514;29;1217;-58
2022/05/10 06:30:39;;;;;;;;;;;;;;;17.81;44.79;101436.75;4809608;29;1978;-57
2022/05/10 06:33:04;;;;;;;;;;;;;;;17.79;44.76;101435.13;4809119;29;794;-58
2022/05/10 06:35:30;;;;;;;;;;;;;;;17.81;44.82;101442.25;4809258;29;1261;-57
2022/05/10 06:40:40;;;;;;;;;;;;;;;17.86;44.73;101434.88;4807364;29;839;-58
2022/05/10 06:43:05;;;;;;;;;;;;;;;17.86;44.85;101431.31;4809662;29;820;-58
2022/05/10 06:45:34;;;;;;;;;;;;;;;17.86;44.81;101434.06;4809110;29;906;-56
2022/05/10 06:48:00;;;;;;;;;;;;;;;17.85;44.84;101426.88;4809572;29;913;-57
2022/05/10 06:50:25;;;;;;;;;;;;;;;17.88;44.90;101431.84;4808873;29;785;-57
2022/05/10 06:52:52;;;;;;;;;;;;;;;17.88;45.06;101431.84;4809097;29;1912;-58
2022/05/10 06:55:17;;;;;;;;;;;;;;;17.89;45.33;101428.00;4808737;29;1478;-59
2022/05/10 06:57:43;;;;;;;;;;;;;;;17.87;45.02;101430.22;4809178;29;848;-56
2022/05/10 07:00:09;;;;;;;;;;;;;;;17.88;45.14;101424.44;4808981;29;854;-58
2022/05/10 07:02:34;;;;;;;;;;;;;;;17.86;44.88;101442.31;4808893;29;776;-58
2022/05/10 07:05:00;;;;;;;;;;;;;;;17.79;44.84;101434.28;4809692;29;932;-58
2022/05/10 07:07:26;;;;;;;;;;;;;;;17.82;44.74;101438.44;4808764;29;775;-59
2022/05/10 07:09:52;;;;;;;;;;;;;;;17.81;44.55;101436.75;4807211;29;851;-59
2022/05/10 07:12:17;;;;;;;;;;;;;;;17.84;44.43;101427.97;4809167;29;1978;-57
2022/05/10 07:14:45;;;;;;;;;;;;;;;17.83;44.34;101432.66;4808190;29;887;-57
2022/05/10 07:17:11;;;;;;;;;;;;;;;17.71;44.49;101429.28;4808994;29;816;-59
2022/05/10 07:19:36;;;;;;;;;;;;;;;17.77;44.44;101440.06;4809656;29;824;-59
2022/05/10 07:22:03;;;;;;;;;;;;;;;17.80;44.17;101430.44;4808564;29;1196;-59
2022/05/10 07:24:29;;;;;;;;;;;;;;;17.77;44.24;101429.06;4808425;29;841;-58
2022/05/10 07:26:54;;;;;;;;;;;;;;;17.74;44.37;101431.50;4808390;29;932;-59
2022/05/10 07:29:21;;;;;;;;;;;;;;;17.75;44.25;101434.00;4808359;29;1045;-59
2022/05/10 07:31:46;;;;;;;;;;;;;;;17.77;44.16;101437.31;4808230;29;1974;-58
2022/05/10 07:34:13;;;;;;;;;;;;;;;17.73;44.19;101441.69;4807573;29;993;-59
2022/05/10 07:36:39;;;;;;;;;;;;;;;17.75;44.13;101439.50;4808112;29;1113;-58
2022/05/10 07:39:05;;;;;;;;;;;;;;;17.75;44.33;101431.25;4808304;29;1031;-61
2022/05/10 07:41:30;;;;;;;;;;;;;;;17.79;44.08;101442.53;4807757;29;1058;-60
2022/05/10 07:43:56;;;;;;;;;;;;;;;17.71;44.21;101432.03;4808474;29;812;-59
2022/05/10 07:46:21;;;;;;;;;;;;;;;17.72;44.40;101444.69;4807746;29;1186;-60
2022/05/10 07:48:47;;;;;;;;;;;;;;;17.71;44.41;101440.28;4808499;29;828;-59
2022/05/10 07:51:12;;;;;;;;;;;;;;;17.74;43.97;101437.00;4808251;29;1971;-60
2022/05/10 07:53:38;;;;;;;;;;;;;;;17.75;44.26;101433.16;4808360;29;775;-61
2022/05/10 07:56:05;;;;;;;;;;;;;;;17.80;44.21;101438.69;4808876;29;752;-60
2022/05/10 07:58:30;;;;;;;;;;;;;;;17.77;44.29;101437.31;4808558;29;1050;-61
2022/05/10 08:00:56;;;;;;;;;;;;;;;17.77;44.08;101434.56;4808354;29;852;-58
2022/05/10 08:03:22;;;;;;;;;;;;;;;17.79;44.14;101435.13;4808886;29;849;-59
2022/05/10 08:05:47;;;;;;;;;;;;;;;17.81;44.22;101436.75;4808485;29;745;-58
2022/05/10 08:08:13;;;;;;;;;;;;;;;17.80;44.40;101441.44;4808079;29;927;-57
2022/05/10 08:10:39;;;;;;;;;;;;;;;17.75;44.50;101444.16;4807657;29;1977;-57
2022/05/10 08:13:04;;;;;;;;;;;;;;;17.79;44.50;101437.88;4808214;29;1279;-58
2022/05/10 08:15:30;;;;;;;;;;;;;;;17.83;44.23;101437.34;4808916;29;1379;-60
2022/05/10 08:17:55;;;;;;;;;;;;;;;17.84;44.47;101430.72;4811881;29;764;-57
2022/05/10 08:20:21;;;;;;;;;;;;;;;17.83;44.30;101429.09;4811923;29;1144;-57
2022/05/10 08:22:46;;;;;;;;;;;;;;;17.88;44.15;101427.19;4812148;29;816;-58
2022/05/10 08:25:12;;;;;;;;;;;;;;;17.87;44.19;101430.22;4811963;29;763;-60
2022/05/10 08:27:37;;;;;;;;;;;;;;;17.85;44.45;101426.88;4811858;29;985;-58
2022/05/10 08:30:03;;;;;;;;;;;;;;;17.84;44.53;101428.81;4809768;29;1013;-58
2022/05/10 08:32:28;;;;;;;;;;;;;;;17.83;44.20;101429.09;4811829;29;2204;-59
2022/05/10 08:34:54;;;;;;;;;;;;;;;17.85;44.26;101432.38;4812200;29;757;-58
2022/05/10 08:37:31;;;;;;;;;;;;;;;17.85;44.50;101427.72;4811577;29;780;-58
2022/05/10 08:39:58;;;;;;;;;;;;;;;17.86;44.31;101421.13;4806670;29;792;-59
2022/05/10 08:42:26;;;;;;;;;;;;;;;17.82;44.61;101427.44;4811663;29;792;-60
2022/05/10 08:45:02;;;;;;;;;;;;;;;17.82;44.38;101428.25;4809593;29;876;-60
2022/05/10 08:47:28;;;;;;;;;;;;;;;17.84;44.24;101422.47;4811209;29;825;-61
2022/05/10 08:49:53;;;;;;;;;;;;;;;17.83;44.19;101424.41;4811539;29;894;-61
2022/05/10 08:52:18;;;;;;;;;;;;;;;17.81;44.28;101429.34;4810884;29;1911;-60
2022/05/10 08:54:44;;;;;;;;;;;;;;;17.85;44.37;101426.88;4811570;29;897;-61
2022/05/10 08:57:39;;;;;;;;;;;;;;;17.82;44.35;101428.25;4811199;29;824;-61
2022/05/10 09:00:10;;;;;;;;;;;;;;;17.88;44.36;101437.34;4798484;29;1389;-61
2022/05/10 09:02:41;;;;;;;;;;;;;;;17.82;44.42;101427.44;4811530;29;1060;-61
2022/05/10 09:05:11;;;;;;;;;;;;;;;17.82;44.23;101421.94;4811393;29;797;-61
2022/05/10 09:07:44;;;;;;;;;;;;;;;17.84;44.37;101426.06;4809531;29;911;-60
2022/05/10 09:10:20;;;;;;;;;;;;;;;17.83;44.47;101424.41;4810686;29;832;-61
2022/05/10 09:12:52;;;;;;;;;;;;;;;17.86;44.44;101420.31;4806104;29;2001;-62
2022/05/10 09:15:18;;;;;;;;;;;;;;;17.85;44.37;101424.97;4810536;29;1291;-58
2022/05/10 09:17:44;;;;;;;;;;;;;;;17.87;44.22;101421.97;4811096;29;998;-57
2022/05/10 09:20:10;;;;;;;;;;;;;;;17.86;44.34;101425.81;4811003;29;1046;-60
2022/05/10 09:22:51;;;;;;;;;;;;;;;17.86;44.29;101425.81;4810386;29;760;-58
2022/05/10 09:25:35;;;;;;;;;;;;;;;17.86;44.32;101423.06;4810916;29;925;-58
2022/05/10 09:28:12;;;;;;;;;;;;;;;17.89;44.56;101425.25;4809813;29;989;-57
2022/05/10 09:30:38;;;;;;;;;;;;;;;17.85;44.48;101432.38;4809980;29;1969;-58
2022/05/10 09:36:01;;;;;;;;;;;;;;;17.87;44.57;101424.72;4807660;29;887;-58
2022/05/10 09:38:26;;;;;;;;;;;;;;;17.85;44.34;101424.13;4809274;29;876;-57
2022/05/10 09:40:52;;;;;;;;;;;;;;;17.86;44.39;101420.31;4810475;29;890;-56
2022/05/10 09:43:23;;;;;;;;;;;;;;;17.90;44.43;101415.91;4810607;29;896;-59
2022/05/10 09:46:25;;;;;;;;;;;;;;;17.88;44.25;101415.34;4810220;29;892;-57
2022/05/10 09:48:51;;;;;;;;;;;;;;;17.89;44.22;101417.00;4752063;30;1466;-55
2022/05/10 09:51:25;;;;;;;;;;;;;;;17.87;44.38;101414.53;4794280;29;1910;-57
2022/05/10 09:53:52;;;;;;;;;;;;;;;17.89;44.43;101417.00;4810266;29;781;-55
2022/05/10 09:56:23;;;;;;;;;;;;;;;17.87;44.17;101419.22;4808041;29;800;-59
2022/05/10 09:58:52;;;;;;;;;;;;;;;17.87;44.16;101419.22;4809852;29;849;-58
2022/05/10 10:01:35;;;;;;;;;;;;;;;17.81;44.28;101409.25;4809133;29;761;-57
2022/05/10 10:04:11;;;;;;;;;;;;;;;17.85;44.06;101413.97;4810366;29;773;-60
2022/05/10 10:06:37;;;;;;;;;;;;;;;17.84;44.13;101415.06;4810240;29;783;-57
2022/05/10 10:09:02;;;;;;;;;;;;;;;17.88;44.03;101415.34;4808764;29;820;-57
2022/05/10 10:11:29;;;;;;;;;;;;;;;17.88;43.77;101407.94;4810138;29;1920;-59
2022/05/10 10:14:06;;;;;;;;;;;;;;;17.88;43.81;101409.84;4809765;29;808;-59
2022/05/10 10:16:31;;;;;;;;;;;;;;;17.87;43.97;101403.53;4796460;29;897;-57
2022/05/10 10:18:58;;;;;;;;;;;;;;;17.88;43.89;101407.09;4808949;29;895;-60
2022/05/10 10:21:36;;;;;;;;;;;;;;;17.86;43.97;101404.59;4809830;29;1010;-60
2022/05/10 10:24:02;;;;;;;;;;;;;;;17.88;44.08;101399.69;4791236;29;876;-60
2022/05/10 10:26:27;;;;;;;;;;;;;;;17.87;43.82;101397.19;4808604;29;864;-60
2022/05/10 10:28:53;;;;;;;;;;;;;;;17.86;43.91;101395.53;4803279;29;1007;-60
2022/05/10 10:31:26;;;;;;;;;;;;;;;17.88;43.85;101402.44;4809684;29;1904;-60
2022/05/10 10:34:15;;;;;;;;;;;;;;;17.88;43.83;101393.34;4804337;29;871;-59
2022/05/10 10:36:48;;;;;;;;;;;;;;;17.85;43.92;101393.88;4773833;29;1606;-59
2022/05/10 10:39:16;;;;;;;;;;;;;;;17.83;43.85;101391.41;4807707;29;842;-59
2022/05/10 10:41:48;;;;;;;;;;;;;;;17.86;43.84;101395.53;4808515;29;861;-59
2022/05/10 10:44:16;;;;;;;;;;;;;;;17.82;43.98;101397.16;4808351;29;697;-60
2022/05/10 10:46:45;;;;;;;;;;;;;;;17.80;43.87;101391.94;4809211;29;748;-60
2022/05/10 10:49:14;;;;;;;;;;;;;;;17.81;43.92;101393.59;4809512;29;837;-60
2022/05/10 10:51:42;;;;;;;;;;;;;;;17.84;43.79;101387.56;4808779;29;1907;-57
2022/05/10 10:54:09;;;;;;;;;;;;;;;17.84;43.62;101387.56;4808257;29;897;-59
2022/05/10 10:56:41;;;;;;;;;;;;;;;17.81;43.91;101371.59;4808450;29;972;-60
2022/05/10 10:59:25;;;;;;;;;;;;;;;17.87;43.99;101375.19;4809556;29;798;-59
2022/05/10 11:01:56;;;;;;;;;;;;;;;17.87;44.10;101378.75;4808521;29;1183;-57
2022/05/10 11:04:21;;;;;;;;;;;;;;;17.92;43.92;101377.97;4806319;29;1374;-57
2022/05/10 11:06:55;;;;;;;;;;;;;;;17.83;43.94;101368.56;4809139;29;1477;-59
2022/05/10 11:09:40;;;;;;;;;;;;;;;17.84;44.27;101372.94;4808751;29;1230;-59
2022/05/10 11:12:24;;;;;;;;;;;;;;;17.88;44.04;101363.91;4808849;29;1976;-57
2022/05/10 11:14:55;;;;;;;;;;;;;;;17.83;43.92;101368.56;4809189;29;876;-59
2022/05/10 11:17:39;;;;;;;;;;;;;;;17.87;43.96;101364.19;4803362;29;1135;-59
2022/05/10 11:20:11;;;;;;;;;;;;;;;17.85;44.07;101352.59;4807838;29;1062;-59
2022/05/10 11:22:39;;;;;;;;;;;;;;;17.87;43.74;101354.00;4809567;29;719;-59
2022/05/10 11:25:23;;;;;;;;;;;;;;;17.89;44.00;101357.31;4808695;29;1335;-61
2022/05/10 11:27:49;;;;;;;;;;;;;;;17.86;43.88;101362.53;4808492;29;1197;-60
2022/05/10 11:30:17;;;;;;;;;;;;;;;17.86;43.79;101351.53;4808137;29;848;-60
2022/05/10 11:33:01;;;;;;;;;;;;;;;17.86;43.91;101351.53;4808708;29;1907;-60
2022/05/10 11:35:45;;;;;;;;;;;;;;;17.89;43.73;101350.97;4803574;29;788;-58
2022/05/10 11:38:16;;;;;;;;;;;;;;;17.89;43.82;101343.56;4808816;29;824;-59
2022/05/10 11:40:54;;;;;;;;;;;;;;;17.89;43.87;101340.81;4807759;29;906;-61
2022/05/10 11:43:30;;;;;;;;;;;;;;;17.86;43.86;101341.34;4808324;29;923;-60
2022/05/10 11:45:56;;;;;;;;;;;;;;;17.89;43.66;101334.47;4804569;29;823;-60
2022/05/10 11:48:34;;;;;;;;;;;;;;;17.84;44.07;101331.69;4808118;29;833;-59
2022/05/10 11:54:05;;;;;;;;;;;;;;;17.94;43.84;101331.78;4808964;29;811;-61
2022/05/10 11:56:34;;;;;;;;;;;;;;;17.87;44.04;101326.50;4807281;29;793;-59
2022/05/10 11:59:03;;;;;;;;;;;;;;;17.93;43.91;101317.19;4807495;29;742;-60
2022/05/10 12:01:39;;;;;;;;;;;;;;;17.96;44.17;101313.06;4803881;29;878;-59
2022/05/10 12:04:04;;;;;;;;;;;;;;;17.94;44.06;101315.28;4802911;29;848;-57
2022/05/10 12:06:31;;;;;;;;;;;;;;;17.93;44.47;101311.69;4800706;29;1460;-60
2022/05/10 12:09:00;;;;;;;;;;;;;;;17.93;44.20;101314.44;4806895;29;1542;-57
2022/05/10 12:11:30;;;;;;;;;;;;;;;17.99;44.18;101311.69;4807270;29;1912;-56
2022/05/10 12:22:12;;;;;;;;;;;;;;;17.96;44.19;101304.81;4807635;29;1078;-57
2022/05/10 12:24:44;;;;;;;;;;;;;;;17.98;44.18;101299.88;4808583;29;932;-59
2022/05/10 12:27:12;;;;;;;;;;;;;;;17.98;44.25;101294.38;4802165;29;1187;-61
2022/05/10 12:29:38;;;;;;;;;;;;;;;17.97;44.26;101300.16;4808171;29;906;-62
2022/05/10 12:32:03;;;;;;;;;;;;;;;17.99;44.22;101289.69;4808183;29;1907;-61
2022/05/10 12:34:38;;;;;;;;;;;;;;;17.94;44.07;101282.25;4808302;29;850;-65
2022/05/10 12:37:26;;;;;;;;;;;;;;;17.93;44.02;101291.59;4808641;29;768;-57
2022/05/10 12:39:52;;;;;;;;;;;;;;;17.94;44.01;101288.56;4808573;29;824;-58
2022/05/10 12:42:20;;;;;;;;;;;;;;;17.98;44.17;101277.03;4806389;29;1031;-57
2022/05/10 12:44:50;;;;;;;;;;;;;;;17.94;44.06;101279.50;4806804;29;861;-58
2022/05/10 12:47:34;;;;;;;;;;;;;;;17.96;44.13;101280.03;4808162;29;926;-58
2022/05/10 12:50:02;;;;;;;;;;;;;;;17.94;44.16;101271.25;4802169;29;833;-60
2022/05/10 12:52:49;;;;;;;;;;;;;;;17.93;43.96;101275.09;4806609;29;1911;-59
2022/05/10 12:55:17;;;;;;;;;;;;;;;17.99;44.05;101274.00;4808339;29;760;-61
2022/05/10 12:57:45;;;;;;;;;;;;;;;17.92;43.95;101274.28;4807870;29;809;-60
2022/05/10 13:00:12;;;;;;;;;;;;;;;17.95;44.12;101278.41;4807341;29;966;-57
2022/05/10 13:02:39;;;;;;;;;;;;;;;18.01;43.77;101271.81;4810283;29;796;-58
2022/05/10 13:05:05;;;;;;;;;;;;;;;17.98;43.88;101266.84;4809652;29;864;-58
2022/05/10 13:07:30;;;;;;;;;;;;;;;17.94;43.68;101266.56;4811563;29;948;-58
2022/05/10 13:10:01;;;;;;;;;;;;;;;17.93;43.81;101259.41;4811221;29;883;-58
2022/05/10 13:12:37;;;;;;;;;;;;;;;17.93;43.89;101258.59;4808866;29;1915;-58
2022/05/10 13:15:08;;;;;;;;;;;;;;;17.89;44.08;101251.94;4810686;29;833;-58
2022/05/10 13:17:34;;;;;;;;;;;;;;;17.91;43.87;101252.53;4811173;29;798;-58
2022/05/10 13:20:00;;;;;;;;;;;;;;;17.94;43.82;101249.25;4809121;29;1390;-58